sensor_id;sensor_type;location;lat;lon;timestamp;P1;durP1;ratioP1;P2;durP2;ratioP2
5295;SDS011;2670;42.720;23.336;2023-08-06T00:01:56;4.60;;;3.40;;
5295;SDS011;2670;42.720;23.336;2023-08-06T00:04:23;8.00;;;3.23;;
5295;SDS011;2670;42.720;23.336;2023-08-06T00:06:49;7.57;;;3.97;;
5295;SDS011;2670;42.720;23.336;2023-08-06T00:09:17;6.77;;;3.57;;
5295;SDS011;2670;42.720;23.336;2023-08-06T00:11:45;14.80;;;5.30;;
5295;SDS011;2670;42.720;23.336;2023-08-06T00:14:12;8.23;;;4.90;;
5295;SDS011;2670;42.720;23.336;2023-08-06T00:16:42;10.90;;;4.30;;
5295;SDS011;2670;42.720;23.336;2023-08-06T00:19:10;9.63;;;4.47;;
5295;SDS011;2670;42.720;23.336;2023-08-06T00:21:37;9.60;;;4.20;;
5295;SDS011;2670;42.720;23.336;2023-08-06T00:24:04;7.67;;;4.50;;
5295;SDS011;2670;42.720;23.336;2023-08-06T00:26:31;9.70;;;4.90;;
5295;SDS011;2670;42.720;23.336;2023-08-06T00:28:59;5.90;;;3.50;;
5295;SDS011;2670;42.720;23.336;2023-08-06T00:31:25;5.60;;;3.70;;
5295;SDS011;2670;42.720;23.336;2023-08-06T00:33:52;10.47;;;4.07;;
5295;SDS011;2670;42.720;23.336;2023-08-06T00:36:21;5.47;;;3.90;;
5295;SDS011;2670;42.720;23.336;2023-08-06T00:38:48;7.03;;;4.20;;
5295;SDS011;2670;42.720;23.336;2023-08-06T00:41:15;6.80;;;3.90;;
5295;SDS011;2670;42.720;23.336;2023-08-06T00:43:42;4.20;;;3.33;;
5295;SDS011;2670;42.720;23.336;2023-08-06T00:46:10;9.33;;;4.07;;
5295;SDS011;2670;42.720;23.336;2023-08-06T00:48:37;8.10;;;4.00;;
5295;SDS011;2670;42.720;23.336;2023-08-06T00:51:03;5.53;;;3.80;;
5295;SDS011;2670;42.720;23.336;2023-08-06T00:53:30;7.03;;;3.40;;
5295;SDS011;2670;42.720;23.336;2023-08-06T00:55:57;8.43;;;3.97;;
5295;SDS011;2670;42.720;23.336;2023-08-06T00:58:24;7.17;;;3.87;;
5295;SDS011;2670;42.720;23.336;2023-08-06T01:00:52;6.80;;;3.90;;
5295;SDS011;2670;42.720;23.336;2023-08-06T01:03:20;5.73;;;3.23;;
5295;SDS011;2670;42.720;23.336;2023-08-06T01:05:46;5.30;;;4.07;;
5295;SDS011;2670;42.720;23.336;2023-08-06T01:08:16;5.17;;;3.83;;
5295;SDS011;2670;42.720;23.336;2023-08-06T01:13:41;5.77;;;3.93;;
5295;SDS011;2670;42.720;23.336;2023-08-06T01:16:11;5.70;;;3.43;;
5295;SDS011;2670;42.720;23.336;2023-08-06T01:18:43;7.60;;;3.73;;
5295;SDS011;2670;42.720;23.336;2023-08-06T01:21:12;6.23;;;3.57;;
5295;SDS011;2670;42.720;23.336;2023-08-06T01:23:39;8.87;;;3.83;;
5295;SDS011;2670;42.720;23.336;2023-08-06T01:26:10;8.73;;;3.80;;
5295;SDS011;2670;42.720;23.336;2023-08-06T01:28:43;6.80;;;4.00;;
5295;SDS011;2670;42.720;23.336;2023-08-06T01:31:15;7.47;;;4.67;;
5295;SDS011;2670;42.720;23.336;2023-08-06T01:33:45;5.20;;;3.90;;
5295;SDS011;2670;42.720;23.336;2023-08-06T01:36:15;5.80;;;4.10;;
5295;SDS011;2670;42.720;23.336;2023-08-06T01:38:44;5.87;;;4.13;;
5295;SDS011;2670;42.720;23.336;2023-08-06T01:41:11;5.03;;;3.57;;
5295;SDS011;2670;42.720;23.336;2023-08-06T01:43:37;7.00;;;4.37;;
5295;SDS011;2670;42.720;23.336;2023-08-06T01:46:04;6.20;;;3.33;;
5295;SDS011;2670;42.720;23.336;2023-08-06T01:48:31;7.30;;;4.33;;
5295;SDS011;2670;42.720;23.336;2023-08-06T01:50:57;6.73;;;5.03;;
5295;SDS011;2670;42.720;23.336;2023-08-06T01:53:25;7.43;;;4.07;;
5295;SDS011;2670;42.720;23.336;2023-08-06T01:55:52;6.20;;;3.43;;
5295;SDS011;2670;42.720;23.336;2023-08-06T01:58:19;6.17;;;3.60;;
5295;SDS011;2670;42.720;23.336;2023-08-06T02:00:45;6.17;;;3.70;;
5295;SDS011;2670;42.720;23.336;2023-08-06T02:03:12;6.47;;;4.47;;
5295;SDS011;2670;42.720;23.336;2023-08-06T02:05:39;6.30;;;4.17;;
5295;SDS011;2670;42.720;23.336;2023-08-06T02:08:06;6.07;;;4.10;;
5295;SDS011;2670;42.720;23.336;2023-08-06T02:10:34;9.07;;;4.40;;
5295;SDS011;2670;42.720;23.336;2023-08-06T02:13:01;6.07;;;3.90;;
5295;SDS011;2670;42.720;23.336;2023-08-06T02:15:27;6.90;;;3.83;;
5295;SDS011;2670;42.720;23.336;2023-08-06T02:17:54;6.93;;;3.80;;
5295;SDS011;2670;42.720;23.336;2023-08-06T02:20:21;5.73;;;3.80;;
5295;SDS011;2670;42.720;23.336;2023-08-06T02:22:48;6.17;;;3.63;;
5295;SDS011;2670;42.720;23.336;2023-08-06T02:25:14;6.97;;;4.20;;
5295;SDS011;2670;42.720;23.336;2023-08-06T02:27:42;7.13;;;4.47;;
5295;SDS011;2670;42.720;23.336;2023-08-06T02:30:09;6.90;;;3.67;;
5295;SDS011;2670;42.720;23.336;2023-08-06T02:32:36;5.83;;;4.00;;
5295;SDS011;2670;42.720;23.336;2023-08-06T02:35:03;25.37;;;7.60;;
5295;SDS011;2670;42.720;23.336;2023-08-06T02:37:30;9.90;;;5.20;;
5295;SDS011;2670;42.720;23.336;2023-08-06T02:39:59;15.60;;;5.20;;
5295;SDS011;2670;42.720;23.336;2023-08-06T02:42:25;10.40;;;4.90;;
5295;SDS011;2670;42.720;23.336;2023-08-06T02:44:54;11.43;;;5.00;;
5295;SDS011;2670;42.720;23.336;2023-08-06T02:47:20;8.83;;;4.50;;
5295;SDS011;2670;42.720;23.336;2023-08-06T02:49:47;7.17;;;3.90;;
5295;SDS011;2670;42.720;23.336;2023-08-06T02:52:14;9.60;;;4.63;;
5295;SDS011;2670;42.720;23.336;2023-08-06T02:54:41;10.73;;;4.30;;
5295;SDS011;2670;42.720;23.336;2023-08-06T02:57:08;8.77;;;4.67;;
5295;SDS011;2670;42.720;23.336;2023-08-06T02:59:35;7.67;;;4.60;;
5295;SDS011;2670;42.720;23.336;2023-08-06T03:02:04;5.70;;;3.83;;
5295;SDS011;2670;42.720;23.336;2023-08-06T03:04:31;7.37;;;4.40;;
5295;SDS011;2670;42.720;23.336;2023-08-06T03:06:57;6.30;;;4.47;;
5295;SDS011;2670;42.720;23.336;2023-08-06T03:09:24;6.97;;;4.07;;
5295;SDS011;2670;42.720;23.336;2023-08-06T03:11:51;4.90;;;3.80;;
5295;SDS011;2670;42.720;23.336;2023-08-06T03:14:17;10.27;;;5.33;;
5295;SDS011;2670;42.720;23.336;2023-08-06T03:16:44;6.87;;;5.20;;
5295;SDS011;2670;42.720;23.336;2023-08-06T03:19:12;9.00;;;5.20;;
5295;SDS011;2670;42.720;23.336;2023-08-06T03:21:39;7.53;;;4.57;;
5295;SDS011;2670;42.720;23.336;2023-08-06T03:24:05;7.40;;;5.17;;
5295;SDS011;2670;42.720;23.336;2023-08-06T03:26:32;13.13;;;5.60;;
5295;SDS011;2670;42.720;23.336;2023-08-06T03:28:59;13.53;;;4.90;;
5295;SDS011;2670;42.720;23.336;2023-08-06T03:31:26;8.50;;;4.70;;
5295;SDS011;2670;42.720;23.336;2023-08-06T03:33:52;9.10;;;4.43;;
5295;SDS011;2670;42.720;23.336;2023-08-06T03:36:21;11.70;;;4.83;;
5295;SDS011;2670;42.720;23.336;2023-08-06T03:38:47;7.90;;;4.67;;
5295;SDS011;2670;42.720;23.336;2023-08-06T03:41:14;8.53;;;5.67;;
5295;SDS011;2670;42.720;23.336;2023-08-06T03:43:41;6.30;;;4.50;;
5295;SDS011;2670;42.720;23.336;2023-08-06T03:46:07;9.80;;;4.87;;
5295;SDS011;2670;42.720;23.336;2023-08-06T03:48:34;9.00;;;5.23;;
5295;SDS011;2670;42.720;23.336;2023-08-06T03:51:01;9.20;;;5.40;;
5295;SDS011;2670;42.720;23.336;2023-08-06T03:53:29;13.47;;;5.00;;
5295;SDS011;2670;42.720;23.336;2023-08-06T03:55:55;11.33;;;6.17;;
5295;SDS011;2670;42.720;23.336;2023-08-06T03:58:25;7.87;;;5.23;;
5295;SDS011;2670;42.720;23.336;2023-08-06T04:00:57;8.63;;;5.03;;
5295;SDS011;2670;42.720;23.336;2023-08-06T04:03:24;7.30;;;5.17;;
5295;SDS011;2670;42.720;23.336;2023-08-06T04:05:51;5.80;;;4.10;;
5295;SDS011;2670;42.720;23.336;2023-08-06T04:08:17;7.37;;;4.70;;
5295;SDS011;2670;42.720;23.336;2023-08-06T04:10:48;7.43;;;4.27;;
5295;SDS011;2670;42.720;23.336;2023-08-06T04:13:15;6.73;;;4.70;;
5295;SDS011;2670;42.720;23.336;2023-08-06T04:15:42;7.07;;;4.70;;
5295;SDS011;2670;42.720;23.336;2023-08-06T04:18:09;6.17;;;4.77;;
5295;SDS011;2670;42.720;23.336;2023-08-06T04:20:41;7.93;;;4.80;;
5295;SDS011;2670;42.720;23.336;2023-08-06T04:23:11;5.20;;;4.00;;
5295;SDS011;2670;42.720;23.336;2023-08-06T04:25:38;8.97;;;4.50;;
5295;SDS011;2670;42.720;23.336;2023-08-06T04:28:07;7.50;;;4.00;;
5295;SDS011;2670;42.720;23.336;2023-08-06T04:30:33;5.70;;;4.20;;
5295;SDS011;2670;42.720;23.336;2023-08-06T04:33:00;5.53;;;4.47;;
5295;SDS011;2670;42.720;23.336;2023-08-06T04:35:27;5.60;;;4.20;;
5295;SDS011;2670;42.720;23.336;2023-08-06T04:37:54;5.57;;;3.80;;
5295;SDS011;2670;42.720;23.336;2023-08-06T04:40:20;6.40;;;3.60;;
5295;SDS011;2670;42.720;23.336;2023-08-06T04:42:47;5.70;;;4.23;;
5295;SDS011;2670;42.720;23.336;2023-08-06T04:45:15;5.17;;;4.03;;
5295;SDS011;2670;42.720;23.336;2023-08-06T04:47:42;6.90;;;4.80;;
5295;SDS011;2670;42.720;23.336;2023-08-06T04:50:09;8.03;;;4.30;;
5295;SDS011;2670;42.720;23.336;2023-08-06T04:52:36;6.40;;;4.43;;
5295;SDS011;2670;42.720;23.336;2023-08-06T04:55:03;7.30;;;4.13;;
5295;SDS011;2670;42.720;23.336;2023-08-06T04:57:31;7.63;;;3.93;;
5295;SDS011;2670;42.720;23.336;2023-08-06T04:59:58;6.47;;;4.50;;
5295;SDS011;2670;42.720;23.336;2023-08-06T05:02:26;5.00;;;4.17;;
5295;SDS011;2670;42.720;23.336;2023-08-06T05:04:52;7.30;;;4.03;;
5295;SDS011;2670;42.720;23.336;2023-08-06T05:07:19;6.07;;;4.10;;
5295;SDS011;2670;42.720;23.336;2023-08-06T05:09:46;8.83;;;4.20;;
5295;SDS011;2670;42.720;23.336;2023-08-06T05:12:12;6.07;;;3.60;;
5295;SDS011;2670;42.720;23.336;2023-08-06T05:14:39;5.10;;;4.07;;
5295;SDS011;2670;42.720;23.336;2023-08-06T05:17:06;4.23;;;3.00;;
5295;SDS011;2670;42.720;23.336;2023-08-06T05:19:34;3.67;;;3.13;;
5295;SDS011;2670;42.720;23.336;2023-08-06T05:22:00;5.00;;;3.33;;
5295;SDS011;2670;42.720;23.336;2023-08-06T05:24:27;4.37;;;3.00;;
5295;SDS011;2670;42.720;23.336;2023-08-06T05:26:54;3.90;;;3.30;;
5295;SDS011;2670;42.720;23.336;2023-08-06T05:29:21;4.30;;;3.30;;
5295;SDS011;2670;42.720;23.336;2023-08-06T05:31:47;3.80;;;2.90;;
5295;SDS011;2670;42.720;23.336;2023-08-06T05:34:14;5.33;;;3.40;;
5295;SDS011;2670;42.720;23.336;2023-08-06T05:36:42;4.23;;;3.23;;
5295;SDS011;2670;42.720;23.336;2023-08-06T05:39:09;6.10;;;4.43;;
5295;SDS011;2670;42.720;23.336;2023-08-06T05:41:35;4.30;;;3.70;;
5295;SDS011;2670;42.720;23.336;2023-08-06T05:44:02;3.97;;;3.50;;
5295;SDS011;2670;42.720;23.336;2023-08-06T05:46:29;5.80;;;3.53;;
5295;SDS011;2670;42.720;23.336;2023-08-06T05:48:56;7.57;;;4.07;;
5295;SDS011;2670;42.720;23.336;2023-08-06T05:51:22;6.60;;;4.30;;
5295;SDS011;2670;42.720;23.336;2023-08-06T05:53:50;4.93;;;4.20;;
5295;SDS011;2670;42.720;23.336;2023-08-06T05:56:17;4.73;;;3.83;;
5295;SDS011;2670;42.720;23.336;2023-08-06T05:58:44;6.33;;;4.50;;
5295;SDS011;2670;42.720;23.336;2023-08-06T06:01:11;6.07;;;4.27;;
5295;SDS011;2670;42.720;23.336;2023-08-06T06:03:38;10.30;;;3.70;;
5295;SDS011;2670;42.720;23.336;2023-08-06T06:06:05;5.83;;;3.90;;
5295;SDS011;2670;42.720;23.336;2023-08-06T06:08:31;4.20;;;3.37;;
5295;SDS011;2670;42.720;23.336;2023-08-06T06:11:00;7.33;;;3.40;;
5295;SDS011;2670;42.720;23.336;2023-08-06T06:13:27;3.77;;;2.93;;
5295;SDS011;2670;42.720;23.336;2023-08-06T06:15:54;6.10;;;3.00;;
5295;SDS011;2670;42.720;23.336;2023-08-06T06:18:21;5.30;;;3.40;;
5295;SDS011;2670;42.720;23.336;2023-08-06T06:20:48;3.40;;;2.67;;
5295;SDS011;2670;42.720;23.336;2023-08-06T06:23:15;3.70;;;2.60;;
5295;SDS011;2670;42.720;23.336;2023-08-06T06:25:42;3.20;;;2.67;;
5295;SDS011;2670;42.720;23.336;2023-08-06T06:28:11;9.30;;;2.87;;
5295;SDS011;2670;42.720;23.336;2023-08-06T06:30:37;4.00;;;2.47;;
5295;SDS011;2670;42.720;23.336;2023-08-06T06:33:04;6.20;;;2.23;;
5295;SDS011;2670;42.720;23.336;2023-08-06T06:35:31;2.60;;;2.03;;
5295;SDS011;2670;42.720;23.336;2023-08-06T06:37:57;2.73;;;2.10;;
5295;SDS011;2670;42.720;23.336;2023-08-06T06:40:25;3.77;;;2.47;;
5295;SDS011;2670;42.720;23.336;2023-08-06T06:42:51;3.03;;;2.47;;
5295;SDS011;2670;42.720;23.336;2023-08-06T06:45:19;6.47;;;2.30;;
5295;SDS011;2670;42.720;23.336;2023-08-06T06:47:46;3.00;;;2.30;;
5295;SDS011;2670;42.720;23.336;2023-08-06T06:50:13;3.87;;;2.30;;
5295;SDS011;2670;42.720;23.336;2023-08-06T06:52:39;2.23;;;1.90;;
5295;SDS011;2670;42.720;23.336;2023-08-06T06:55:06;3.60;;;2.73;;
5295;SDS011;2670;42.720;23.336;2023-08-06T06:57:34;3.97;;;2.70;;
5295;SDS011;2670;42.720;23.336;2023-08-06T07:00:00;3.53;;;2.50;;
5295;SDS011;2670;42.720;23.336;2023-08-06T07:02:28;2.70;;;2.10;;
5295;SDS011;2670;42.720;23.336;2023-08-06T07:04:55;3.40;;;1.83;;
5295;SDS011;2670;42.720;23.336;2023-08-06T07:07:22;10.77;;;2.40;;
5295;SDS011;2670;42.720;23.336;2023-08-06T07:09:48;7.10;;;2.90;;
5295;SDS011;2670;42.720;23.336;2023-08-06T07:12:15;8.50;;;3.30;;
5295;SDS011;2670;42.720;23.336;2023-08-06T07:14:42;4.13;;;2.67;;
5295;SDS011;2670;42.720;23.336;2023-08-06T07:17:08;9.33;;;3.33;;
5295;SDS011;2670;42.720;23.336;2023-08-06T07:19:36;6.20;;;2.87;;
5295;SDS011;2670;42.720;23.336;2023-08-06T07:22:03;6.87;;;3.20;;
5295;SDS011;2670;42.720;23.336;2023-08-06T07:24:30;4.67;;;2.67;;
5295;SDS011;2670;42.720;23.336;2023-08-06T07:26:57;5.70;;;2.40;;
5295;SDS011;2670;42.720;23.336;2023-08-06T07:29:24;2.60;;;2.00;;
5295;SDS011;2670;42.720;23.336;2023-08-06T07:31:50;4.77;;;2.30;;
5295;SDS011;2670;42.720;23.336;2023-08-06T07:34:17;2.93;;;2.23;;
5295;SDS011;2670;42.720;23.336;2023-08-06T07:36:45;7.33;;;2.67;;
5295;SDS011;2670;42.720;23.336;2023-08-06T07:39:12;4.37;;;2.70;;
5295;SDS011;2670;42.720;23.336;2023-08-06T07:41:41;3.33;;;2.20;;
5295;SDS011;2670;42.720;23.336;2023-08-06T07:44:08;4.70;;;2.57;;
5295;SDS011;2670;42.720;23.336;2023-08-06T07:46:34;4.83;;;2.80;;
5295;SDS011;2670;42.720;23.336;2023-08-06T07:49:01;3.73;;;2.83;;
5295;SDS011;2670;42.720;23.336;2023-08-06T07:51:28;3.30;;;2.77;;
5295;SDS011;2670;42.720;23.336;2023-08-06T07:53:56;4.47;;;2.70;;
5295;SDS011;2670;42.720;23.336;2023-08-06T07:56:23;6.30;;;2.97;;
5295;SDS011;2670;42.720;23.336;2023-08-06T07:58:49;5.40;;;2.70;;
5295;SDS011;2670;42.720;23.336;2023-08-06T08:01:16;3.13;;;2.63;;
5295;SDS011;2670;42.720;23.336;2023-08-06T08:03:43;4.43;;;3.30;;
5295;SDS011;2670;42.720;23.336;2023-08-06T08:06:10;4.90;;;2.70;;
5295;SDS011;2670;42.720;23.336;2023-08-06T08:08:37;4.03;;;3.13;;
5295;SDS011;2670;42.720;23.336;2023-08-06T08:11:05;8.77;;;4.13;;
5295;SDS011;2670;42.720;23.336;2023-08-06T08:13:32;3.77;;;2.80;;
5295;SDS011;2670;42.720;23.336;2023-08-06T08:15:59;4.13;;;3.43;;
5295;SDS011;2670;42.720;23.336;2023-08-06T08:18:26;3.67;;;2.70;;
5295;SDS011;2670;42.720;23.336;2023-08-06T08:20:53;7.20;;;3.00;;
5295;SDS011;2670;42.720;23.336;2023-08-06T08:23:20;3.23;;;2.67;;
5295;SDS011;2670;42.720;23.336;2023-08-06T08:25:46;7.17;;;3.17;;
5295;SDS011;2670;42.720;23.336;2023-08-06T08:28:14;5.13;;;2.83;;
5295;SDS011;2670;42.720;23.336;2023-08-06T08:30:41;5.77;;;2.80;;
5295;SDS011;2670;42.720;23.336;2023-08-06T08:33:08;4.20;;;2.80;;
5295;SDS011;2670;42.720;23.336;2023-08-06T08:35:35;7.57;;;3.43;;
5295;SDS011;2670;42.720;23.336;2023-08-06T08:38:03;5.00;;;2.80;;
5295;SDS011;2670;42.720;23.336;2023-08-06T08:40:31;4.30;;;3.43;;
5295;SDS011;2670;42.720;23.336;2023-08-06T08:42:59;4.63;;;3.33;;
5295;SDS011;2670;42.720;23.336;2023-08-06T08:45:28;4.80;;;2.90;;
5295;SDS011;2670;42.720;23.336;2023-08-06T08:47:56;4.70;;;2.50;;
5295;SDS011;2670;42.720;23.336;2023-08-06T08:50:22;5.07;;;2.63;;
5295;SDS011;2670;42.720;23.336;2023-08-06T08:52:49;3.43;;;2.73;;
5295;SDS011;2670;42.720;23.336;2023-08-06T08:55:17;5.50;;;2.80;;
5295;SDS011;2670;42.720;23.336;2023-08-06T08:57:46;11.73;;;3.17;;
5295;SDS011;2670;42.720;23.336;2023-08-06T09:00:13;7.00;;;2.77;;
5295;SDS011;2670;42.720;23.336;2023-08-06T09:02:41;4.17;;;3.50;;
5295;SDS011;2670;42.720;23.336;2023-08-06T09:05:09;8.40;;;4.30;;
5295;SDS011;2670;42.720;23.336;2023-08-06T09:07:38;5.03;;;3.40;;
5295;SDS011;2670;42.720;23.336;2023-08-06T09:10:09;5.47;;;3.00;;
5295;SDS011;2670;42.720;23.336;2023-08-06T09:12:38;5.50;;;2.60;;
5295;SDS011;2670;42.720;23.336;2023-08-06T09:15:05;11.00;;;3.50;;
5295;SDS011;2670;42.720;23.336;2023-08-06T09:17:33;6.07;;;3.00;;
5295;SDS011;2670;42.720;23.336;2023-08-06T09:20:09;3.37;;;2.80;;
5295;SDS011;2670;42.720;23.336;2023-08-06T09:22:37;4.70;;;3.10;;
5295;SDS011;2670;42.720;23.336;2023-08-06T09:25:04;3.97;;;3.20;;
5295;SDS011;2670;42.720;23.336;2023-08-06T09:27:35;6.13;;;3.43;;
5295;SDS011;2670;42.720;23.336;2023-08-06T09:30:02;6.90;;;2.93;;
5295;SDS011;2670;42.720;23.336;2023-08-06T09:32:36;4.00;;;2.70;;
5295;SDS011;2670;42.720;23.336;2023-08-06T09:35:16;4.30;;;2.30;;
5295;SDS011;2670;42.720;23.336;2023-08-06T09:37:43;5.03;;;2.10;;
5295;SDS011;2670;42.720;23.336;2023-08-06T09:40:26;4.27;;;2.73;;
5295;SDS011;2670;42.720;23.336;2023-08-06T09:42:53;6.30;;;2.53;;
5295;SDS011;2670;42.720;23.336;2023-08-06T09:45:20;3.13;;;2.40;;
5295;SDS011;2670;42.720;23.336;2023-08-06T09:47:48;4.97;;;2.60;;
5295;SDS011;2670;42.720;23.336;2023-08-06T09:50:17;2.97;;;2.43;;
5295;SDS011;2670;42.720;23.336;2023-08-06T09:52:45;6.87;;;2.33;;
5295;SDS011;2670;42.720;23.336;2023-08-06T09:55:13;5.20;;;2.70;;
5295;SDS011;2670;42.720;23.336;2023-08-06T09:57:42;3.83;;;2.33;;
5295;SDS011;2670;42.720;23.336;2023-08-06T10:00:09;3.33;;;2.67;;
5295;SDS011;2670;42.720;23.336;2023-08-06T10:02:37;7.67;;;3.03;;
5295;SDS011;2670;42.720;23.336;2023-08-06T10:05:04;3.30;;;2.53;;
5295;SDS011;2670;42.720;23.336;2023-08-06T10:07:33;8.60;;;3.60;;
5295;SDS011;2670;42.720;23.336;2023-08-06T10:10:00;4.50;;;3.10;;
5295;SDS011;2670;42.720;23.336;2023-08-06T10:12:29;4.63;;;3.57;;
5295;SDS011;2670;42.720;23.336;2023-08-06T10:14:59;4.30;;;3.50;;
5295;SDS011;2670;42.720;23.336;2023-08-06T10:17:29;3.50;;;2.53;;
5295;SDS011;2670;42.720;23.336;2023-08-06T10:19:58;5.80;;;3.00;;
5295;SDS011;2670;42.720;23.336;2023-08-06T10:22:25;3.13;;;2.63;;
5295;SDS011;2670;42.720;23.336;2023-08-06T10:24:55;2.90;;;2.47;;
5295;SDS011;2670;42.720;23.336;2023-08-06T10:27:27;2.97;;;2.60;;
5295;SDS011;2670;42.720;23.336;2023-08-06T10:29:55;3.47;;;3.17;;
5295;SDS011;2670;42.720;23.336;2023-08-06T10:32:25;7.60;;;4.10;;
5295;SDS011;2670;42.720;23.336;2023-08-06T10:35:27;3.80;;;2.50;;
5295;SDS011;2670;42.720;23.336;2023-08-06T10:37:57;2.77;;;2.47;;
5295;SDS011;2670;42.720;23.336;2023-08-06T10:40:26;2.97;;;2.40;;
5295;SDS011;2670;42.720;23.336;2023-08-06T10:42:54;3.30;;;2.30;;
5295;SDS011;2670;42.720;23.336;2023-08-06T10:45:21;6.60;;;3.10;;
5295;SDS011;2670;42.720;23.336;2023-08-06T10:47:53;4.37;;;3.43;;
5295;SDS011;2670;42.720;23.336;2023-08-06T10:50:21;4.40;;;3.13;;
5295;SDS011;2670;42.720;23.336;2023-08-06T10:52:48;4.50;;;2.83;;
5295;SDS011;2670;42.720;23.336;2023-08-06T10:55:21;5.97;;;2.63;;
5295;SDS011;2670;42.720;23.336;2023-08-06T10:57:50;3.63;;;2.67;;
5295;SDS011;2670;42.720;23.336;2023-08-06T11:00:17;3.87;;;2.63;;
5295;SDS011;2670;42.720;23.336;2023-08-06T11:02:44;5.50;;;2.80;;
5295;SDS011;2670;42.720;23.336;2023-08-06T11:05:12;5.90;;;3.23;;
5295;SDS011;2670;42.720;23.336;2023-08-06T11:07:39;3.50;;;2.67;;
5295;SDS011;2670;42.720;23.336;2023-08-06T11:10:06;7.63;;;3.57;;
5295;SDS011;2670;42.720;23.336;2023-08-06T11:12:34;8.53;;;3.40;;
5295;SDS011;2670;42.720;23.336;2023-08-06T11:15:03;3.63;;;3.33;;
5295;SDS011;2670;42.720;23.336;2023-08-06T11:17:31;4.00;;;3.40;;
5295;SDS011;2670;42.720;23.336;2023-08-06T11:19:58;8.47;;;4.40;;
5295;SDS011;2670;42.720;23.336;2023-08-06T11:22:26;4.43;;;3.87;;
5295;SDS011;2670;42.720;23.336;2023-08-06T11:24:53;8.50;;;3.87;;
5295;SDS011;2670;42.720;23.336;2023-08-06T11:27:20;5.60;;;4.23;;
5295;SDS011;2670;42.720;23.336;2023-08-06T11:29:47;7.00;;;4.23;;
5295;SDS011;2670;42.720;23.336;2023-08-06T11:32:15;6.70;;;4.23;;
5295;SDS011;2670;42.720;23.336;2023-08-06T11:34:42;4.70;;;3.87;;
5295;SDS011;2670;42.720;23.336;2023-08-06T11:37:09;6.87;;;4.47;;
5295;SDS011;2670;42.720;23.336;2023-08-06T11:39:37;6.90;;;4.90;;
5295;SDS011;2670;42.720;23.336;2023-08-06T11:42:04;10.67;;;4.70;;
5295;SDS011;2670;42.720;23.336;2023-08-06T11:44:33;6.20;;;4.87;;
5295;SDS011;2670;42.720;23.336;2023-08-06T11:47:02;6.50;;;4.60;;
5295;SDS011;2670;42.720;23.336;2023-08-06T11:49:38;6.00;;;4.27;;
5295;SDS011;2670;42.720;23.336;2023-08-06T11:52:10;5.30;;;4.03;;
5295;SDS011;2670;42.720;23.336;2023-08-06T11:54:39;6.70;;;5.07;;
5295;SDS011;2670;42.720;23.336;2023-08-06T11:57:05;6.13;;;4.63;;
5295;SDS011;2670;42.720;23.336;2023-08-06T11:59:32;6.20;;;4.30;;
5295;SDS011;2670;42.720;23.336;2023-08-06T12:02:00;5.60;;;3.90;;
5295;SDS011;2670;42.720;23.336;2023-08-06T12:04:27;6.13;;;4.80;;
5295;SDS011;2670;42.720;23.336;2023-08-06T12:06:55;4.60;;;4.10;;
5295;SDS011;2670;42.720;23.336;2023-08-06T12:09:31;5.30;;;4.73;;
5295;SDS011;2670;42.720;23.336;2023-08-06T12:11:58;6.37;;;4.50;;
5295;SDS011;2670;42.720;23.336;2023-08-06T12:14:25;6.50;;;5.07;;
5295;SDS011;2670;42.720;23.336;2023-08-06T12:16:52;5.93;;;4.20;;
5295;SDS011;2670;42.720;23.336;2023-08-06T12:19:18;26.63;;;7.03;;
5295;SDS011;2670;42.720;23.336;2023-08-06T12:21:45;8.40;;;5.20;;
5295;SDS011;2670;42.720;23.336;2023-08-06T12:24:14;16.53;;;5.90;;
5295;SDS011;2670;42.720;23.336;2023-08-06T12:26:40;5.90;;;5.23;;
5295;SDS011;2670;42.720;23.336;2023-08-06T12:29:07;6.40;;;4.67;;
5295;SDS011;2670;42.720;23.336;2023-08-06T12:31:34;13.47;;;5.33;;
5295;SDS011;2670;42.720;23.336;2023-08-06T12:34:00;7.10;;;5.20;;
5295;SDS011;2670;42.720;23.336;2023-08-06T12:36:27;11.77;;;4.73;;
5295;SDS011;2670;42.720;23.336;2023-08-06T12:38:54;7.73;;;5.50;;
5295;SDS011;2670;42.720;23.336;2023-08-06T12:41:23;6.67;;;5.47;;
5295;SDS011;2670;42.720;23.336;2023-08-06T12:43:50;9.37;;;5.33;;
5295;SDS011;2670;42.720;23.336;2023-08-06T12:46:16;11.83;;;5.00;;
5295;SDS011;2670;42.720;23.336;2023-08-06T12:48:43;6.37;;;4.43;;
5295;SDS011;2670;42.720;23.336;2023-08-06T12:51:09;10.70;;;5.03;;
5295;SDS011;2670;42.720;23.336;2023-08-06T12:53:35;8.30;;;5.30;;
5295;SDS011;2670;42.720;23.336;2023-08-06T12:56:02;11.90;;;5.40;;
5295;SDS011;2670;42.720;23.336;2023-08-06T12:58:30;7.40;;;5.03;;
5295;SDS011;2670;42.720;23.336;2023-08-06T13:00:57;10.80;;;4.87;;
5295;SDS011;2670;42.720;23.336;2023-08-06T13:03:24;8.30;;;4.70;;
5295;SDS011;2670;42.720;23.336;2023-08-06T13:05:51;6.63;;;4.40;;
5295;SDS011;2670;42.720;23.336;2023-08-06T13:08:17;6.47;;;4.63;;
5295;SDS011;2670;42.720;23.336;2023-08-06T13:10:44;8.50;;;5.33;;
5295;SDS011;2670;42.720;23.336;2023-08-06T13:13:11;11.33;;;5.00;;
5295;SDS011;2670;42.720;23.336;2023-08-06T13:15:39;5.10;;;4.23;;
5295;SDS011;2670;42.720;23.336;2023-08-06T13:18:05;5.33;;;4.20;;
5295;SDS011;2670;42.720;23.336;2023-08-06T13:20:32;6.00;;;4.73;;
5295;SDS011;2670;42.720;23.336;2023-08-06T13:22:59;9.50;;;4.27;;
5295;SDS011;2670;42.720;23.336;2023-08-06T13:25:26;7.00;;;4.30;;
5295;SDS011;2670;42.720;23.336;2023-08-06T13:27:53;5.00;;;4.47;;
5295;SDS011;2670;42.720;23.336;2023-08-06T13:30:20;5.67;;;4.77;;
5295;SDS011;2670;42.720;23.336;2023-08-06T13:32:49;8.33;;;4.53;;
5295;SDS011;2670;42.720;23.336;2023-08-06T13:35:16;5.43;;;4.30;;
5295;SDS011;2670;42.720;23.336;2023-08-06T13:37:42;7.13;;;4.00;;
5295;SDS011;2670;42.720;23.336;2023-08-06T13:40:09;5.80;;;4.83;;
5295;SDS011;2670;42.720;23.336;2023-08-06T13:42:36;11.97;;;4.40;;
5295;SDS011;2670;42.720;23.336;2023-08-06T13:45:03;6.03;;;4.07;;
5295;SDS011;2670;42.720;23.336;2023-08-06T13:47:31;6.57;;;4.60;;
5295;SDS011;2670;42.720;23.336;2023-08-06T13:49:59;6.97;;;4.63;;
5295;SDS011;2670;42.720;23.336;2023-08-06T13:52:25;20.13;;;5.50;;
5295;SDS011;2670;42.720;23.336;2023-08-06T13:54:52;5.37;;;4.87;;
5295;SDS011;2670;42.720;23.336;2023-08-06T13:57:19;12.03;;;4.97;;
5295;SDS011;2670;42.720;23.336;2023-08-06T13:59:46;5.23;;;3.93;;
5295;SDS011;2670;42.720;23.336;2023-08-06T14:02:14;11.57;;;4.10;;
5295;SDS011;2670;42.720;23.336;2023-08-06T14:04:41;6.20;;;4.23;;
5295;SDS011;2670;42.720;23.336;2023-08-06T14:07:09;6.60;;;4.10;;
5295;SDS011;2670;42.720;23.336;2023-08-06T14:09:35;9.33;;;4.17;;
5295;SDS011;2670;42.720;23.336;2023-08-06T14:12:02;7.27;;;3.70;;
5295;SDS011;2670;42.720;23.336;2023-08-06T14:14:30;4.77;;;3.83;;
5295;SDS011;2670;42.720;23.336;2023-08-06T14:16:57;14.53;;;4.53;;
5295;SDS011;2670;42.720;23.336;2023-08-06T14:19:24;6.43;;;3.70;;
5295;SDS011;2670;42.720;23.336;2023-08-06T14:21:50;3.73;;;3.43;;
5295;SDS011;2670;42.720;23.336;2023-08-06T14:24:18;8.70;;;4.07;;
5295;SDS011;2670;42.720;23.336;2023-08-06T14:26:45;7.87;;;4.67;;
5295;SDS011;2670;42.720;23.336;2023-08-06T14:29:12;5.70;;;4.20;;
5295;SDS011;2670;42.720;23.336;2023-08-06T14:31:39;3.90;;;3.50;;
5295;SDS011;2670;42.720;23.336;2023-08-06T14:34:06;4.53;;;3.73;;
5295;SDS011;2670;42.720;23.336;2023-08-06T14:36:32;10.37;;;4.20;;
5295;SDS011;2670;42.720;23.336;2023-08-06T14:38:59;9.33;;;4.47;;
5295;SDS011;2670;42.720;23.336;2023-08-06T14:41:27;5.30;;;3.40;;
5295;SDS011;2670;42.720;23.336;2023-08-06T14:43:54;5.07;;;4.03;;
5295;SDS011;2670;42.720;23.336;2023-08-06T14:46:20;5.57;;;4.27;;
5295;SDS011;2670;42.720;23.336;2023-08-06T14:48:47;6.43;;;3.80;;
5295;SDS011;2670;42.720;23.336;2023-08-06T14:51:14;7.00;;;4.13;;
5295;SDS011;2670;42.720;23.336;2023-08-06T14:53:41;7.30;;;4.30;;
5295;SDS011;2670;42.720;23.336;2023-08-06T14:56:08;6.17;;;4.17;;
5295;SDS011;2670;42.720;23.336;2023-08-06T14:58:36;5.20;;;4.20;;
5295;SDS011;2670;42.720;23.336;2023-08-06T15:01:03;6.90;;;4.07;;
5295;SDS011;2670;42.720;23.336;2023-08-06T15:03:29;5.20;;;3.80;;
5295;SDS011;2670;42.720;23.336;2023-08-06T15:05:57;6.70;;;3.80;;